sensor_id;sensor_type;location;lat;lon;timestamp;P1;durP1;ratioP1;P2;durP2;ratioP2
14933;SDS011;7560;51.364;12.384;2023-08-06T00:02:19;6.78;;;5.03;;
14933;SDS011;7560;51.364;12.384;2023-08-06T00:07:21;6.00;;;4.65;;
14933;SDS011;7560;51.364;12.384;2023-08-06T00:12:23;7.20;;;4.63;;
14933;SDS011;7560;51.364;12.384;2023-08-06T00:17:25;6.55;;;4.82;;
14933;SDS011;7560;51.364;12.384;2023-08-06T00:22:26;8.23;;;4.80;;
14933;SDS011;7560;51.364;12.384;2023-08-06T00:27:28;7.15;;;4.55;;
14933;SDS011;7560;51.364;12.384;2023-08-06T00:32:30;7.00;;;5.95;;
14933;SDS011;7560;51.364;12.384;2023-08-06T00:37:32;6.30;;;5.65;;
14933;SDS011;7560;51.364;12.384;2023-08-06T00:42:34;7.05;;;5.53;;
14933;SDS011;7560;51.364;12.384;2023-08-06T00:47:36;7.65;;;5.15;;
14933;SDS011;7560;51.364;12.384;2023-08-06T00:52:38;6.95;;;5.30;;
14933;SDS011;7560;51.364;12.384;2023-08-06T00:57:39;7.97;;;5.50;;
14933;SDS011;7560;51.364;12.384;2023-08-06T01:02:41;5.22;;;4.72;;
14933;SDS011;7560;51.364;12.384;2023-08-06T01:18:20;7.07;;;5.70;;
14933;SDS011;7560;51.364;12.384;2023-08-06T01:23:22;7.18;;;5.32;;
14933;SDS011;7560;51.364;12.384;2023-08-06T01:28:39;6.88;;;5.00;;
14933;SDS011;7560;51.364;12.384;2023-08-06T01:33:43;8.07;;;5.35;;
14933;SDS011;7560;51.364;12.384;2023-08-06T01:38:48;7.93;;;5.80;;
14933;SDS011;7560;51.364;12.384;2023-08-06T01:43:55;8.45;;;5.72;;
14933;SDS011;7560;51.364;12.384;2023-08-06T01:48:57;5.57;;;4.97;;
14933;SDS011;7560;51.364;12.384;2023-08-06T01:53:59;6.38;;;4.97;;
14933;SDS011;7560;51.364;12.384;2023-08-06T01:59:00;8.13;;;5.38;;
14933;SDS011;7560;51.364;12.384;2023-08-06T02:04:05;6.05;;;5.13;;
14933;SDS011;7560;51.364;12.384;2023-08-06T02:09:07;7.93;;;5.85;;
14933;SDS011;7560;51.364;12.384;2023-08-06T02:14:09;7.50;;;5.72;;
14933;SDS011;7560;51.364;12.384;2023-08-06T02:19:11;6.55;;;5.68;;
14933;SDS011;7560;51.364;12.384;2023-08-06T02:24:12;7.97;;;6.07;;
14933;SDS011;7560;51.364;12.384;2023-08-06T02:29:14;6.70;;;5.45;;
14933;SDS011;7560;51.364;12.384;2023-08-06T02:34:16;7.65;;;5.63;;
14933;SDS011;7560;51.364;12.384;2023-08-06T02:39:18;8.38;;;5.72;;
14933;SDS011;7560;51.364;12.384;2023-08-06T02:44:20;6.38;;;5.63;;
14933;SDS011;7560;51.364;12.384;2023-08-06T02:49:22;7.82;;;5.43;;
14933;SDS011;7560;51.364;12.384;2023-08-06T02:54:23;8.75;;;6.15;;
14933;SDS011;7560;51.364;12.384;2023-08-06T02:59:25;9.02;;;6.22;;
14933;SDS011;7560;51.364;12.384;2023-08-06T03:04:27;6.63;;;5.95;;
14933;SDS011;7560;51.364;12.384;2023-08-06T03:09:29;18.83;;;8.52;;
14933;SDS011;7560;51.364;12.384;2023-08-06T03:14:31;6.90;;;5.70;;
14933;SDS011;7560;51.364;12.384;2023-08-06T03:19:32;9.60;;;6.03;;
14933;SDS011;7560;51.364;12.384;2023-08-06T03:24:34;6.95;;;6.07;;
14933;SDS011;7560;51.364;12.384;2023-08-06T03:29:36;8.85;;;5.93;;
14933;SDS011;7560;51.364;12.384;2023-08-06T03:34:38;10.43;;;6.10;;
14933;SDS011;7560;51.364;12.384;2023-08-06T03:39:39;7.45;;;5.97;;
14933;SDS011;7560;51.364;12.384;2023-08-06T03:44:41;7.63;;;6.20;;
14933;SDS011;7560;51.364;12.384;2023-08-06T03:49:43;7.85;;;6.70;;
14933;SDS011;7560;51.364;12.384;2023-08-06T03:54:45;8.68;;;6.47;;
14933;SDS011;7560;51.364;12.384;2023-08-06T03:59:46;9.35;;;6.70;;
14933;SDS011;7560;51.364;12.384;2023-08-06T04:04:55;8.80;;;6.85;;
14933;SDS011;7560;51.364;12.384;2023-08-06T04:09:58;9.32;;;6.93;;
14933;SDS011;7560;51.364;12.384;2023-08-06T04:15:01;9.20;;;6.80;;
14933;SDS011;7560;51.364;12.384;2023-08-06T04:20:03;7.05;;;6.35;;
14933;SDS011;7560;51.364;12.384;2023-08-06T04:25:06;6.80;;;6.07;;
14933;SDS011;7560;51.364;12.384;2023-08-06T04:30:08;9.20;;;6.45;;
14933;SDS011;7560;51.364;12.384;2023-08-06T04:35:10;6.68;;;5.90;;
14933;SDS011;7560;51.364;12.384;2023-08-06T04:40:12;7.78;;;5.55;;
14933;SDS011;7560;51.364;12.384;2023-08-06T04:45:14;7.03;;;6.32;;
14933;SDS011;7560;51.364;12.384;2023-08-06T04:50:16;8.60;;;6.38;;
14933;SDS011;7560;51.364;12.384;2023-08-06T04:55:18;9.10;;;6.07;;
14933;SDS011;7560;51.364;12.384;2023-08-06T05:00:19;7.32;;;5.88;;
14933;SDS011;7560;51.364;12.384;2023-08-06T05:05:21;5.38;;;4.88;;
14933;SDS011;7560;51.364;12.384;2023-08-06T05:10:26;5.60;;;4.20;;
14933;SDS011;7560;51.364;12.384;2023-08-06T05:15:28;4.18;;;3.47;;
14933;SDS011;7560;51.364;12.384;2023-08-06T05:20:30;4.88;;;3.22;;
14933;SDS011;7560;51.364;12.384;2023-08-06T05:25:37;3.58;;;3.08;;
14933;SDS011;7560;51.364;12.384;2023-08-06T05:30:39;2.90;;;2.70;;
14933;SDS011;7560;51.364;12.384;2023-08-06T05:35:42;3.92;;;3.17;;
14933;SDS011;7560;51.364;12.384;2023-08-06T05:40:43;3.85;;;2.97;;
14933;SDS011;7560;51.364;12.384;2023-08-06T05:45:45;3.78;;;2.25;;
14933;SDS011;7560;51.364;12.384;2023-08-06T05:50:47;3.13;;;2.30;;
14933;SDS011;7560;51.364;12.384;2023-08-06T05:55:49;3.85;;;2.55;;
14933;SDS011;7560;51.364;12.384;2023-08-06T06:00:51;2.78;;;1.92;;
14933;SDS011;7560;51.364;12.384;2023-08-06T06:05:53;2.53;;;2.33;;
14933;SDS011;7560;51.364;12.384;2023-08-06T06:10:55;2.45;;;2.10;;
14933;SDS011;7560;51.364;12.384;2023-08-06T06:15:57;2.90;;;2.20;;
14933;SDS011;7560;51.364;12.384;2023-08-06T06:20:58;2.40;;;2.10;;
14933;SDS011;7560;51.364;12.384;2023-08-06T06:26:00;2.53;;;2.03;;
14933;SDS011;7560;51.364;12.384;2023-08-06T06:31:02;2.20;;;2.00;;
14933;SDS011;7560;51.364;12.384;2023-08-06T06:36:05;3.17;;;2.05;;
14933;SDS011;7560;51.364;12.384;2023-08-06T06:41:08;2.58;;;2.00;;
14933;SDS011;7560;51.364;12.384;2023-08-06T06:46:10;2.53;;;2.33;;
14933;SDS011;7560;51.364;12.384;2023-08-06T06:51:12;2.42;;;2.15;;
14933;SDS011;7560;51.364;12.384;2023-08-06T06:56:14;3.13;;;2.50;;
14933;SDS011;7560;51.364;12.384;2023-08-06T07:01:15;2.55;;;2.35;;
14933;SDS011;7560;51.364;12.384;2023-08-06T07:06:17;4.03;;;3.20;;
14933;SDS011;7560;51.364;12.384;2023-08-06T07:11:19;4.78;;;2.50;;
14933;SDS011;7560;51.364;12.384;2023-08-06T07:16:21;4.03;;;2.55;;
14933;SDS011;7560;51.364;12.384;2023-08-06T07:21:23;4.05;;;2.60;;
14933;SDS011;7560;51.364;12.384;2023-08-06T07:26:24;3.00;;;2.40;;
14933;SDS011;7560;51.364;12.384;2023-08-06T07:31:26;3.35;;;2.42;;
14933;SDS011;7560;51.364;12.384;2023-08-06T07:36:28;3.15;;;2.50;;
14933;SDS011;7560;51.364;12.384;2023-08-06T07:41:30;3.20;;;2.50;;
14933;SDS011;7560;51.364;12.384;2023-08-06T07:46:32;3.00;;;2.70;;
14933;SDS011;7560;51.364;12.384;2023-08-06T07:51:33;2.75;;;2.55;;
14933;SDS011;7560;51.364;12.384;2023-08-06T07:56:35;3.38;;;2.55;;
14933;SDS011;7560;51.364;12.384;2023-08-06T08:01:38;4.55;;;2.53;;
14933;SDS011;7560;51.364;12.384;2023-08-06T08:06:40;3.17;;;2.45;;
14933;SDS011;7560;51.364;12.384;2023-08-06T08:11:43;2.22;;;1.90;;
14933;SDS011;7560;51.364;12.384;2023-08-06T08:16:45;2.60;;;2.13;;
14933;SDS011;7560;51.364;12.384;2023-08-06T08:21:46;2.58;;;2.08;;
14933;SDS011;7560;51.364;12.384;2023-08-06T08:26:48;3.60;;;2.13;;
14933;SDS011;7560;51.364;12.384;2023-08-06T08:31:50;3.33;;;2.28;;
14933;SDS011;7560;51.364;12.384;2023-08-06T08:36:52;2.83;;;2.10;;
14933;SDS011;7560;51.364;12.384;2023-08-06T08:41:54;4.47;;;2.20;;
14933;SDS011;7560;51.364;12.384;2023-08-06T08:46:56;2.28;;;2.05;;
14933;SDS011;7560;51.364;12.384;2023-08-06T08:51:59;2.85;;;2.13;;
14933;SDS011;7560;51.364;12.384;2023-08-06T08:57:04;2.30;;;2.10;;
14933;SDS011;7560;51.364;12.384;2023-08-06T09:02:06;2.78;;;2.05;;
14933;SDS011;7560;51.364;12.384;2023-08-06T09:07:13;3.10;;;2.80;;
14933;SDS011;7560;51.364;12.384;2023-08-06T09:12:18;2.90;;;2.25;;
14933;SDS011;7560;51.364;12.384;2023-08-06T09:17:20;2.70;;;2.50;;
14933;SDS011;7560;51.364;12.384;2023-08-06T09:22:22;2.65;;;2.45;;
14933;SDS011;7560;51.364;12.384;2023-08-06T09:27:24;2.03;;;1.92;;
14933;SDS011;7560;51.364;12.384;2023-08-06T09:32:26;3.25;;;2.05;;
14933;SDS011;7560;51.364;12.384;2023-08-06T09:37:35;3.20;;;2.30;;
14933;SDS011;7560;51.364;12.384;2023-08-06T09:42:37;2.42;;;2.22;;
14933;SDS011;7560;51.364;12.384;2023-08-06T09:47:39;2.30;;;2.10;;
14933;SDS011;7560;51.364;12.384;2023-08-06T09:52:41;2.00;;;1.80;;
14933;SDS011;7560;51.364;12.384;2023-08-06T09:57:44;3.13;;;1.70;;
14933;SDS011;7560;51.364;12.384;2023-08-06T10:02:47;3.05;;;1.70;;
14933;SDS011;7560;51.364;12.384;2023-08-06T10:07:50;1.88;;;1.77;;
14933;SDS011;7560;51.364;12.384;2023-08-06T10:12:54;2.47;;;1.90;;
14933;SDS011;7560;51.364;12.384;2023-08-06T10:17:59;1.90;;;1.67;;
14933;SDS011;7560;51.364;12.384;2023-08-06T10:23:03;1.77;;;1.60;;
14933;SDS011;7560;51.364;12.384;2023-08-06T10:28:07;2.75;;;1.83;;
14933;SDS011;7560;51.364;12.384;2023-08-06T10:33:10;1.70;;;1.48;;
14933;SDS011;7560;51.364;12.384;2023-08-06T10:38:14;3.30;;;1.60;;
14933;SDS011;7560;51.364;12.384;2023-08-06T10:43:29;2.10;;;1.55;;
14933;SDS011;7560;51.364;12.384;2023-08-06T10:48:39;1.75;;;1.65;;
14933;SDS011;7560;51.364;12.384;2023-08-06T10:53:43;1.55;;;1.45;;
14933;SDS011;7560;51.364;12.384;2023-08-06T10:58:47;2.03;;;1.80;;
14933;SDS011;7560;51.364;12.384;2023-08-06T11:03:50;1.98;;;1.70;;
14933;SDS011;7560;51.364;12.384;2023-08-06T11:08:54;1.83;;;1.50;;
14933;SDS011;7560;51.364;12.384;2023-08-06T11:13:56;1.80;;;1.60;;
14933;SDS011;7560;51.364;12.384;2023-08-06T11:18:58;1.98;;;1.80;;
14933;SDS011;7560;51.364;12.384;2023-08-06T11:24:01;1.60;;;1.50;;
14933;SDS011;7560;51.364;12.384;2023-08-06T11:29:03;1.60;;;1.50;;
14933;SDS011;7560;51.364;12.384;2023-08-06T11:34:05;1.50;;;1.40;;
14933;SDS011;7560;51.364;12.384;2023-08-06T11:39:06;1.50;;;1.40;;
14933;SDS011;7560;51.364;12.384;2023-08-06T11:44:10;1.50;;;1.40;;
14933;SDS011;7560;51.364;12.384;2023-08-06T11:49:17;1.45;;;1.33;;
14933;SDS011;7560;51.364;12.384;2023-08-06T11:54:31;1.88;;;1.65;;
14933;SDS011;7560;51.364;12.384;2023-08-06T11:59:38;1.80;;;1.40;;
14933;SDS011;7560;51.364;12.384;2023-08-06T12:10:15;2.15;;;1.40;;
14933;SDS011;7560;51.364;12.384;2023-08-06T12:15:18;4.10;;;1.50;;
14933;SDS011;7560;51.364;12.384;2023-08-06T12:20:20;1.52;;;1.42;;
14933;SDS011;7560;51.364;12.384;2023-08-06T12:25:22;2.38;;;1.40;;
14933;SDS011;7560;51.364;12.384;2023-08-06T12:30:25;1.55;;;1.40;;
14933;SDS011;7560;51.364;12.384;2023-08-06T12:35:27;1.63;;;1.30;;
14933;SDS011;7560;51.364;12.384;2023-08-06T12:40:28;1.50;;;1.40;;
14933;SDS011;7560;51.364;12.384;2023-08-06T12:45:38;1.40;;;1.30;;
14933;SDS011;7560;51.364;12.384;2023-08-06T12:50:39;1.40;;;1.30;;
14933;SDS011;7560;51.364;12.384;2023-08-06T12:55:41;1.30;;;1.20;;
14933;SDS011;7560;51.364;12.384;2023-08-06T13:00:43;1.40;;;1.30;;
14933;SDS011;7560;51.364;12.384;2023-08-06T13:05:45;1.60;;;1.50;;
14933;SDS011;7560;51.364;12.384;2023-08-06T13:10:47;2.33;;;1.20;;
14933;SDS011;7560;51.364;12.384;2023-08-06T13:15:49;2.22;;;1.30;;
14933;SDS011;7560;51.364;12.384;2023-08-06T13:20:52;3.03;;;1.40;;
14933;SDS011;7560;51.364;12.384;2023-08-06T13:25:55;1.40;;;1.30;;
14933;SDS011;7560;51.364;12.384;2023-08-06T13:30:57;1.90;;;1.30;;
14933;SDS011;7560;51.364;12.384;2023-08-06T13:35:59;1.27;;;1.17;;
14933;SDS011;7560;51.364;12.384;2023-08-06T13:41:01;1.20;;;1.10;;
14933;SDS011;7560;51.364;12.384;2023-08-06T13:46:03;2.63;;;1.30;;
14933;SDS011;7560;51.364;12.384;2023-08-06T13:51:05;1.33;;;1.23;;
14933;SDS011;7560;51.364;12.384;2023-08-06T13:56:08;3.13;;;1.50;;
14933;SDS011;7560;51.364;12.384;2023-08-06T14:01:16;1.20;;;1.10;;
14933;SDS011;7560;51.364;12.384;2023-08-06T14:06:20;1.65;;;0.98;;
14933;SDS011;7560;51.364;12.384;2023-08-06T14:11:22;1.30;;;1.20;;
14933;SDS011;7560;51.364;12.384;2023-08-06T14:16:23;1.20;;;1.10;;
14933;SDS011;7560;51.364;12.384;2023-08-06T14:21:25;1.60;;;1.20;;
14933;SDS011;7560;51.364;12.384;2023-08-06T14:26:27;2.72;;;1.00;;
14933;SDS011;7560;51.364;12.384;2023-08-06T14:31:29;2.78;;;1.30;;
14933;SDS011;7560;51.364;12.384;2023-08-06T14:36:31;1.90;;;1.00;;
14933;SDS011;7560;51.364;12.384;2023-08-06T14:41:32;1.20;;;1.10;;
14933;SDS011;7560;51.364;12.384;2023-08-06T14:46:34;1.48;;;1.10;;
14933;SDS011;7560;51.364;12.384;2023-08-06T14:51:36;2.03;;;1.20;;
14933;SDS011;7560;51.364;12.384;2023-08-06T14:56:38;1.20;;;1.10;;
14933;SDS011;7560;51.364;12.384;2023-08-06T15:01:39;1.10;;;1.00;;
14933;SDS011;7560;51.364;12.384;2023-08-06T15:06:41;1.02;;;1.00;;
14933;SDS011;7560;51.364;12.384;2023-08-06T15:11:43;1.88;;;1.10;;
14933;SDS011;7560;51.364;12.384;2023-08-06T15:16:46;1.70;;;1.00;;
14933;SDS011;7560;51.364;12.384;2023-08-06T15:21:48;2.05;;;1.40;;
14933;SDS011;7560;51.364;12.384;2023-08-06T15:26:50;2.45;;;1.15;;
14933;SDS011;7560;51.364;12.384;2023-08-06T15:31:52;2.50;;;1.27;;
14933;SDS011;7560;51.364;12.384;2023-08-06T15:36:54;1.67;;;1.30;;
14933;SDS011;7560;51.364;12.384;2023-08-06T15:41:56;2.85;;;1.63;;
14933;SDS011;7560;51.364;12.384;2023-08-06T15:46:57;2.47;;;2.15;;
14933;SDS011;7560;51.364;12.384;2023-08-06T15:51:59;2.88;;;2.30;;
14933;SDS011;7560;51.364;12.384;2023-08-06T15:57:01;2.72;;;2.53;;
14933;SDS011;7560;51.364;12.384;2023-08-06T16:02:03;2.50;;;2.30;;
14933;SDS011;7560;51.364;12.384;2023-08-06T16:07:07;2.63;;;2.42;;
14933;SDS011;7560;51.364;12.384;2023-08-06T16:12:09;3.65;;;2.38;;
14933;SDS011;7560;51.364;12.384;2023-08-06T16:17:13;2.92;;;2.67;;
14933;SDS011;7560;51.364;12.384;2023-08-06T16:22:17;3.10;;;2.80;;
14933;SDS011;7560;51.364;12.384;2023-08-06T16:27:19;4.72;;;2.85;;
14933;SDS011;7560;51.364;12.384;2023-08-06T16:32:21;3.83;;;3.03;;
14933;SDS011;7560;51.364;12.384;2023-08-06T16:37:23;3.80;;;3.17;;
14933;SDS011;7560;51.364;12.384;2023-08-06T16:42:27;3.67;;;3.22;;
14933;SDS011;7560;51.364;12.384;2023-08-06T16:47:30;5.57;;;3.35;;
14933;SDS011;7560;51.364;12.384;2023-08-06T16:52:32;3.92;;;3.53;;
14933;SDS011;7560;51.364;12.384;2023-08-06T16:57:34;3.25;;;2.95;;
14933;SDS011;7560;51.364;12.384;2023-08-06T17:02:36;4.07;;;3.55;;
14933;SDS011;7560;51.364;12.384;2023-08-06T17:07:38;2.78;;;2.10;;
14933;SDS011;7560;51.364;12.384;2023-08-06T17:12:39;2.20;;;1.85;;
14933;SDS011;7560;51.364;12.384;2023-08-06T17:17:41;3.15;;;1.88;;
14933;SDS011;7560;51.364;12.384;2023-08-06T17:22:43;3.13;;;2.10;;
14933;SDS011;7560;51.364;12.384;2023-08-06T17:27:45;1.83;;;1.65;;
14933;SDS011;7560;51.364;12.384;2023-08-06T17:32:46;3.40;;;1.60;;
14933;SDS011;7560;51.364;12.384;2023-08-06T17:37:48;2.20;;;1.60;;
14933;SDS011;7560;51.364;12.384;2023-08-06T17:42:50;1.67;;;1.30;;
14933;SDS011;7560;51.364;12.384;2023-08-06T17:47:52;2.33;;;1.10;;
14933;SDS011;7560;51.364;12.384;2023-08-06T17:52:54;1.55;;;1.20;;
14933;SDS011;7560;51.364;12.384;2023-08-06T17:57:56;1.52;;;1.25;;
14933;SDS011;7560;51.364;12.384;2023-08-06T18:02:58;1.92;;;1.50;;
14933;SDS011;7560;51.364;12.384;2023-08-06T18:08:00;3.22;;;1.65;;
14933;SDS011;7560;51.364;12.384;2023-08-06T18:13:02;2.25;;;1.90;;
14933;SDS011;7560;51.364;12.384;2023-08-06T18:18:03;3.97;;;2.05;;
14933;SDS011;7560;51.364;12.384;2023-08-06T18:23:05;3.42;;;1.90;;
14933;SDS011;7560;51.364;12.384;2023-08-06T18:28:07;1.88;;;1.35;;
14933;SDS011;7560;51.364;12.384;2023-08-06T18:33:09;2.42;;;1.60;;
14933;SDS011;7560;51.364;12.384;2023-08-06T18:38:11;2.05;;;1.67;;
14933;SDS011;7560;51.364;12.384;2023-08-06T18:43:13;1.95;;;1.55;;
14933;SDS011;7560;51.364;12.384;2023-08-06T18:48:14;1.95;;;1.60;;
14933;SDS011;7560;51.364;12.384;2023-08-06T18:53:17;2.33;;;1.58;;
14933;SDS011;7560;51.364;12.384;2023-08-06T18:58:19;2.72;;;1.70;;
14933;SDS011;7560;51.364;12.384;2023-08-06T19:03:21;2.17;;;1.60;;
14933;SDS011;7560;51.364;12.384;2023-08-06T19:08:23;2.22;;;1.88;;
14933;SDS011;7560;51.364;12.384;2023-08-06T19:13:24;3.63;;;1.70;;
14933;SDS011;7560;51.364;12.384;2023-08-06T19:18:26;2.30;;;1.98;;
14933;SDS011;7560;51.364;12.384;2023-08-06T19:23:28;2.20;;;2.00;;
14933;SDS011;7560;51.364;12.384;2023-08-06T19:28:30;1.95;;;1.77;;
14933;SDS011;7560;51.364;12.384;2023-08-06T19:33:32;1.75;;;1.65;;
14933;SDS011;7560;51.364;12.384;2023-08-06T19:38:34;3.28;;;2.05;;
14933;SDS011;7560;51.364;12.384;2023-08-06T19:43:35;3.42;;;2.30;;
14933;SDS011;7560;51.364;12.384;2023-08-06T19:48:37;3.38;;;2.72;;
14933;SDS011;7560;51.364;12.384;2023-08-06T19:53:39;3.10;;;2.35;;
14933;SDS011;7560;51.364;12.384;2023-08-06T19:58:43;3.63;;;2.78;;
14933;SDS011;7560;51.364;12.384;2023-08-06T20:03:45;5.05;;;3.47;;
14933;SDS011;7560;51.364;12.384;2023-08-06T20:08:47;4.22;;;3.35;;
14933;SDS011;7560;51.364;12.384;2023-08-06T20:13:49;4.40;;;3.70;;
14933;SDS011;7560;51.364;12.384;2023-08-06T20:18:51;3.40;;;2.90;;
14933;SDS011;7560;51.364;12.384;2023-08-06T20:23:53;3.22;;;2.78;;
14933;SDS011;7560;51.364;12.384;2023-08-06T20:28:55;3.00;;;2.60;;
14933;SDS011;7560;51.364;12.384;2023-08-06T20:33:59;3.63;;;2.85;;
14933;SDS011;7560;51.364;12.384;2023-08-06T20:39:00;3.60;;;2.70;;
14933;SDS011;7560;51.364;12.384;2023-08-06T20:44:02;3.42;;;3.00;;
14933;SDS011;7560;51.364;12.384;2023-08-06T20:49:04;3.80;;;2.53;;
14933;SDS011;7560;51.364;12.384;2023-08-06T20:54:06;4.13;;;2.72;;
14933;SDS011;7560;51.364;12.384;2023-08-06T20:59:08;3.65;;;3.10;;
14933;SDS011;7560;51.364;12.384;2023-08-06T21:04:10;3.80;;;3.08;;
14933;SDS011;7560;51.364;12.384;2023-08-06T21:09:13;3.83;;;2.97;;
14933;SDS011;7560;51.364;12.384;2023-08-06T21:14:15;3.75;;;3.40;;
14933;SDS011;7560;51.364;12.384;2023-08-06T21:19:16;3.70;;;3.22;;
14933;SDS011;7560;51.364;12.384;2023-08-06T21:24:18;3.58;;;2.72;;
14933;SDS011;7560;51.364;12.384;2023-08-06T21:29:20;3.33;;;3.03;;
14933;SDS011;7560;51.364;12.384;2023-08-06T21:34:22;3.47;;;2.75;;
14933;SDS011;7560;51.364;12.384;2023-08-06T21:39:23;3.65;;;3.25;;
14933;SDS011;7560;51.364;12.384;2023-08-06T21:44:25;3.95;;;3.22;;
14933;SDS011;7560;51.364;12.384;2023-08-06T21:49:27;5.18;;;3.20;;
14933;SDS011;7560;51.364;12.384;2023-08-06T21:54:30;4.10;;;3.25;;
14933;SDS011;7560;51.364;12.384;2023-08-06T21:59:32;4.80;;;3.22;;
14933;SDS011;7560;51.364;12.384;2023-08-06T22:04:33;5.05;;;3.47;;
14933;SDS011;7560;51.364;12.384;2023-08-06T22:09:35;4.00;;;3.45;;
14933;SDS011;7560;51.364;12.384;2023-08-06T22:14:37;3.45;;;3.05;;
14933;SDS011;7560;51.364;12.384;2023-08-06T22:19:39;3.97;;;3.10;;
14933;SDS011;7560;51.364;12.384;2023-08-06T22:24:41;3.58;;;2.97;;
14933;SDS011;7560;51.364;12.384;2023-08-06T22:29:43;3.22;;;2.70;;
14933;SDS011;7560;51.364;12.384;2023-08-06T22:34:44;3.85;;;2.78;;
14933;SDS011;7560;51.364;12.384;2023-08-06T22:39:46;2.80;;;2.60;;
14933;SDS011;7560;51.364;12.384;2023-08-06T22:44:48;3.15;;;2.50;;
14933;SDS011;7560;51.364;12.384;2023-08-06T22:49:50;2.58;;;2.30;;
14933;SDS011;7560;51.364;12.384;2023-08-06T22:54:52;3.20;;;2.65;;
14933;SDS011;7560;51.364;12.384;2023-08-06T23:00:14;2.55;;;2.30;;
14933;SDS011;7560;51.364;12.384;2023-08-06T23:05:16;2.88;;;2.58;;
14933;SDS011;7560;51.364;12.384;2023-08-06T23:10:18;2.92;;;2.40;;
14933;SDS011;7560;51.364;12.384;2023-08-06T23:15:24;3.33;;;2.30;;
14933;SDS011;7560;51.364;12.384;2023-08-06T23:20:25;3.47;;;2.38;;
14933;SDS011;7560;51.364;12.384;2023-08-06T23:25:27;3.35;;;2.50;;
14933;SDS011;7560;51.364;12.384;2023-08-06T23:30:29;2.78;;;2.38;;
14933;SDS011;7560;51.364;12.384;2023-08-06T23:35:30;2.92;;;2.40;;
14933;SDS011;7560;51.364;12.384;2023-08-06T23:40:32;3.30;;;2.30;;
14933;SDS011;7560;51.364;12.384;2023-08-06T23:45:34;2.85;;;2.10;;
14933;SDS011;7560;51.364;12.384;2023-08-06T23:50:36;3.25;;;2.00;;
14933;SDS011;7560;51.364;12.384;2023-08-06T23:55:38;4.18;;;2.03;;
